Aérodrome :
LOGIN :

S'inscrire | Disclaimer

   EN    FR    IT 

 










Légende :    VFR   VFR Marginal   IFR   IFR Intensif   IFR Très Intensif
Visi : 
Plafond : 
>= 8 km
>= 3000ft
5 à 8 km
1000 à 3000 ft
1500m à 5 km
500 à 1000 ft
800 à 1500m
200 à 500 ft
< 800m
< 200 ft
Symboles :   Orages  Brouillard  Fortes neiges  Fortes précipitations  Vent > 20 kt
SIGMETs :   Divers  Orages  Givrage  Turbulence  Onde Orograph.  Cendres Volcan.







- Altitude de l'aérodrome : 433 ft
- Code IATA : CCF
- Voir les cartes d'approche


LFMK - Carcassonne

DERNIER METAR :
  • 171900Z AUTO 29011KT 9999 -RA FEW032 BKN038 BKN045 09/05 Q1024

METARs EXPIRÉS :
  • 171830Z AUTO 28010KT 9999 BKN039 BKN048 09/05 Q1024
  • 171800Z AUTO 28011KT 9999 FEW037 SCT045 09/05 Q1024 TEMPO 28020G30KT SHRA BKN020TCU
  • 171730Z AUTO 28010KT 9999 FEW052 10/05 Q1024 TEMPO 28020G30KT SHRA BKN020TCU
  • 171700Z AUTO 29013KT 9999 FEW070 SCT088 10/05 Q1023 TEMPO 28020G30KT SHRA BKN020TCU
  • 171630Z AUTO 28011KT 9999 BKN068 OVC082 10/06 Q1023 TEMPO 28020G30KT SHRA BKN020TCU

TAF TAF LFMK
Valide du 17 à 15h jusqu'au 18 à 15h UTC


171400Z 1715/1815 29018KT 9999 BKN023 BKN054 OVC100
TEMPO 1715/1720 28020G30KT
TEMPO 1715/1724 SHRA BKN020TCU
BECMG 1803/1805 NSW BKN015
BECMG 1812/1814 CAVOK
Pas de NOTAMs connus pour ce terrain.



MET'MAP, la Météo Aéronautique d'un coup d'oeil ! - Copyright ORBIFLY Décembre 2007 - Disclaimer

ORBIFLY MET'MAP TEAM :

Programmation & Développement : Alexandra Zaïnal
Conception & Développement : Baudouin d'Aumeries
Co-Programmation & Développement : Marc-Olivier Méhu
Soutien technique & logistique : Manuel Goepfert

Contact : metmap@orbifly.com




SOURCES & CREDITS :

   NOAA